createdAt,value
2023-02-28T00:01:30.281Z,72.33
2023-02-28T00:04:02.483Z,72.40
2023-02-28T00:06:34.566Z,72.38
2023-02-28T00:09:06.634Z,72.48
2023-02-28T00:11:38.964Z,72.47
2023-02-28T00:14:10.925Z,72.40
2023-02-28T00:16:43.025Z,72.35
2023-02-28T00:19:15.136Z,72.28
2023-02-28T00:21:47.267Z,72.19
2023-02-28T00:24:19.387Z,72.03
2023-02-28T00:26:51.473Z,72.21
2023-02-28T00:29:23.779Z,72.34
2023-02-28T00:31:56.062Z,72.45
2023-02-28T00:34:28.214Z,72.46
2023-02-28T00:37:00.271Z,72.31
2023-02-28T00:39:32.295Z,72.45
2023-02-28T00:42:04.838Z,72.10
2023-02-28T00:44:36.758Z,71.99
2023-02-28T00:47:08.689Z,71.82
2023-02-28T00:49:40.867Z,72.04
2023-02-28T00:52:14.312Z,71.74
2023-02-28T00:54:46.254Z,71.79
2023-02-28T00:57:19.685Z,71.80
2023-02-28T00:59:51.651Z,71.81
2023-02-28T01:02:24.768Z,71.82
2023-02-28T01:04:58.066Z,71.88
2023-02-28T01:07:30.031Z,72.02
2023-02-28T01:10:01.968Z,72.09
2023-02-28T01:12:33.955Z,72.32
2023-02-28T01:15:06.872Z,72.27
2023-02-28T01:17:39.001Z,72.43
2023-02-28T01:20:12.015Z,72.52
2023-02-28T01:22:45.025Z,72.39
2023-02-28T01:25:17.539Z,72.35
2023-02-28T01:27:49.480Z,72.50
2023-02-28T01:30:21.753Z,72.66
2023-02-28T01:32:54.579Z,72.63
2023-02-28T01:35:26.644Z,72.62
2023-02-28T01:38:09.530Z,72.37
2023-02-28T01:40:32.674Z,72.40
2023-02-28T01:43:04.424Z,72.56
2023-02-28T01:45:37.854Z,72.25
2023-02-28T01:48:11.827Z,72.09
2023-02-28T01:50:47.306Z,72.18
2023-02-28T01:53:22.181Z,72.08
2023-02-28T01:55:56.537Z,72.22
2023-02-28T01:58:28.558Z,72.33
2023-02-28T02:01:01.065Z,72.42
2023-02-28T02:03:33.935Z,72.64
2023-02-28T02:06:06.698Z,72.76
2023-02-28T02:08:40.197Z,72.81
2023-02-28T02:11:15.590Z,72.85
2023-02-28T02:13:56.647Z,72.93
2023-02-28T02:17:03.276Z,73.02
2023-02-28T02:20:06.418Z,72.96
2023-02-28T02:22:50.136Z,72.82
2023-02-28T02:25:37.114Z,72.69
2023-02-28T02:28:26.958Z,72.68
2023-02-28T02:31:17.101Z,72.39
2023-02-28T02:34:18.860Z,72.23
2023-02-28T02:37:12.717Z,72.14
2023-02-28T02:39:56.658Z,72.03
2023-02-28T02:42:37.361Z,72.06
2023-02-28T02:45:12.445Z,72.00
2023-02-28T02:47:47.254Z,71.96
2023-02-28T02:50:22.200Z,71.79
2023-02-28T02:52:58.017Z,71.90
2023-02-28T02:55:32.459Z,71.96
2023-02-28T02:58:08.379Z,71.92
2023-02-28T03:00:43.683Z,71.91
2023-02-28T03:03:18.749Z,71.87
2023-02-28T03:05:52.693Z,71.88
2023-02-28T03:08:25.053Z,72.08
2023-02-28T03:11:02.568Z,72.25
2023-02-28T03:14:00.202Z,72.42
2023-02-28T03:16:50.918Z,72.36
2023-02-28T03:19:37.798Z,72.28
2023-02-28T03:22:19.011Z,72.33
2023-02-28T03:24:53.785Z,72.42
2023-02-28T03:27:48.328Z,72.39
2023-02-28T03:30:45.829Z,72.39
2023-02-28T03:33:26.635Z,72.33
2023-02-28T03:36:02.064Z,72.18
2023-02-28T03:38:43.618Z,71.95
2023-02-28T03:41:18.822Z,72.00
2023-02-28T03:44:02.809Z,72.07
2023-02-28T03:46:37.844Z,71.97
2023-02-28T03:49:18.460Z,71.91
2023-02-28T03:51:53.155Z,71.55
2023-02-28T03:54:28.082Z,71.53
2023-02-28T03:57:06.051Z,71.54
2023-02-28T03:59:40.985Z,71.36
2023-02-28T04:02:13.849Z,71.43
2023-02-28T04:04:47.889Z,71.54
2023-02-28T04:07:19.994Z,71.15
2023-02-28T04:09:52.246Z,71.13
2023-02-28T04:12:24.860Z,70.85
2023-02-28T04:14:57.538Z,70.98
2023-02-28T04:17:29.788Z,71.14
2023-02-28T04:20:01.919Z,71.28
2023-02-28T04:22:34.246Z,71.43
2023-02-28T04:25:07.437Z,71.51
2023-02-28T04:27:39.784Z,71.28
2023-02-28T04:30:13.295Z,71.41
2023-02-28T04:32:45.299Z,71.57
2023-02-28T04:35:17.772Z,71.58
2023-02-28T04:37:50.303Z,71.60
2023-02-28T04:40:23.413Z,71.20
2023-02-28T04:42:56.374Z,71.36
2023-02-28T04:45:30.346Z,71.05
2023-02-28T04:48:02.364Z,70.35
2023-02-28T04:50:34.855Z,69.63
2023-02-28T04:53:07.515Z,69.53
2023-02-28T04:55:41.192Z,69.36
2023-02-28T04:58:14.038Z,69.42
2023-02-28T05:00:46.474Z,69.42
2023-02-28T05:03:18.915Z,69.29
2023-02-28T05:05:51.974Z,68.56
2023-02-28T05:08:26.594Z,67.60
2023-02-28T05:10:59.121Z,67.13
2023-02-28T05:13:32.843Z,66.83
2023-02-28T05:16:04.560Z,66.29
2023-02-28T05:18:36.840Z,64.09
2023-02-28T05:21:18.325Z,63.13
2023-02-28T05:23:50.982Z,62.93
2023-02-28T05:26:24.083Z,63.14
2023-02-28T05:28:56.677Z,62.62
2023-02-28T05:31:29.445Z,62.85
2023-02-28T05:34:02.261Z,60.54
2023-02-28T05:36:34.938Z,59.82
2023-02-28T05:39:10.571Z,57.95
2023-02-28T05:41:46.697Z,56.50
2023-02-28T05:44:18.883Z,57.61
2023-02-28T05:46:51.340Z,56.93
2023-02-28T05:49:24.168Z,56.72
2023-02-28T05:51:56.601Z,56.43
2023-02-28T05:54:28.566Z,55.90
2023-02-28T05:57:01.263Z,54.91
2023-02-28T05:59:33.596Z,53.94
2023-02-28T06:02:06.793Z,53.95
2023-02-28T06:04:39.162Z,54.25
2023-02-28T06:07:12.060Z,54.64
2023-02-28T06:09:44.435Z,52.75
2023-02-28T06:12:17.226Z,53.06
2023-02-28T06:14:49.742Z,53.22
2023-02-28T06:17:22.010Z,52.25
2023-02-28T06:19:54.240Z,52.28
2023-02-28T06:22:26.167Z,50.25
2023-02-28T06:24:59.189Z,50.47
2023-02-28T06:27:34.943Z,50.05
2023-02-28T06:30:08.013Z,49.81
2023-02-28T06:32:42.179Z,50.25
2023-02-28T06:35:15.097Z,50.36
2023-02-28T06:37:48.396Z,51.04
2023-02-28T06:40:20.873Z,51.96
2023-02-28T06:42:53.376Z,51.89
2023-02-28T06:45:27.214Z,52.51
2023-02-28T06:48:01.436Z,52.95
2023-02-28T06:50:34.734Z,53.00
2023-02-28T06:53:07.144Z,53.35
2023-02-28T06:55:41.452Z,53.42
2023-02-28T06:58:17.536Z,54.10
2023-02-28T07:00:53.158Z,54.22
2023-02-28T07:03:25.745Z,54.21
2023-02-28T07:05:58.295Z,54.68
2023-02-28T07:08:30.807Z,54.49
2023-02-28T07:11:04.511Z,54.55
2023-02-28T07:13:38.301Z,55.22
2023-02-28T07:16:13.991Z,54.48
2023-02-28T07:18:46.628Z,55.12
2023-02-28T07:21:18.511Z,55.21
2023-02-28T07:23:50.554Z,55.59
2023-02-28T07:26:23.526Z,55.41
2023-02-28T07:28:56.149Z,55.90
2023-02-28T07:31:29.098Z,55.74
2023-02-28T07:34:02.005Z,54.86
2023-02-28T07:36:34.493Z,54.71
2023-02-28T07:39:06.751Z,54.78
2023-02-28T07:41:40.539Z,55.35
2023-02-28T07:44:13.727Z,55.74
2023-02-28T07:46:46.509Z,55.55
2023-02-28T07:49:19.133Z,56.05
2023-02-28T07:51:51.208Z,56.03
2023-02-28T07:54:23.456Z,56.36
2023-02-28T07:56:55.845Z,56.20
2023-02-28T07:59:29.507Z,55.73
2023-02-28T08:02:02.273Z,55.34
2023-02-28T08:04:37.191Z,55.32
2023-02-28T08:07:10.540Z,55.63
2023-02-28T08:09:43.578Z,54.80
2023-02-28T08:12:16.074Z,55.16
2023-02-28T08:14:48.453Z,55.59
2023-02-28T08:17:20.873Z,55.80
2023-02-28T08:19:53.091Z,55.58
2023-02-28T08:22:25.559Z,56.08
2023-02-28T08:24:58.120Z,57.02
2023-02-28T08:27:30.718Z,56.41
2023-02-28T08:30:04.400Z,56.11
2023-02-28T08:32:36.778Z,56.09
2023-02-28T08:35:10.441Z,55.84
2023-02-28T08:37:43.004Z,55.61
2023-02-28T08:40:16.862Z,55.00
2023-02-28T08:42:49.653Z,55.41
2023-02-28T08:45:22.135Z,56.20
2023-02-28T08:47:55.788Z,56.83
2023-02-28T08:50:27.671Z,57.29
2023-02-28T08:53:01.523Z,57.34
2023-02-28T08:55:33.802Z,57.80
2023-02-28T08:58:06.254Z,58.37
2023-02-28T09:00:38.857Z,58.09
2023-02-28T09:03:12.416Z,58.39
2023-02-28T09:05:46.234Z,58.95
2023-02-28T09:08:18.402Z,59.23
2023-02-28T09:10:50.511Z,59.20
2023-02-28T09:13:23.106Z,60.02
2023-02-28T09:15:56.013Z,59.43
2023-02-28T09:18:28.730Z,59.78
2023-02-28T09:21:01.082Z,59.31
2023-02-28T09:23:33.424Z,58.39
2023-02-28T09:26:06.283Z,58.28
2023-02-28T09:28:38.505Z,58.81
2023-02-28T09:31:16.707Z,58.48
2023-02-28T09:33:53.255Z,58.28
2023-02-28T09:36:41.591Z,58.12
2023-02-28T09:39:01.560Z,58.35
2023-02-28T09:41:44.305Z,57.96
2023-02-28T09:44:19.606Z,58.04
2023-02-28T09:46:54.645Z,58.77
2023-02-28T09:49:29.594Z,58.95
2023-02-28T09:52:10.431Z,59.30
2023-02-28T09:54:42.945Z,59.66
2023-02-28T09:57:23.402Z,59.84
2023-02-28T09:59:58.361Z,60.18
2023-02-28T10:02:59.531Z,60.22
2023-02-28T10:05:34.655Z,60.64
2023-02-28T10:08:23.138Z,60.81
2023-02-28T10:10:58.330Z,59.79
2023-02-28T10:13:35.982Z,59.34
2023-02-28T10:16:17.142Z,59.82
2023-02-28T10:18:54.674Z,59.34
2023-02-28T10:21:45.700Z,59.13
2023-02-28T10:24:26.833Z,60.00
2023-02-28T10:27:18.685Z,59.73
2023-02-28T10:29:56.297Z,60.14
2023-02-28T10:32:37.393Z,60.57
2023-02-28T10:35:18.230Z,60.20
2023-02-28T10:37:56.554Z,60.35
2023-02-28T10:40:39.465Z,60.88
2023-02-28T10:43:20.961Z,60.74
2023-02-28T10:46:05.056Z,60.97
2023-02-28T10:48:45.908Z,60.93
2023-02-28T10:51:20.832Z,60.45
2023-02-28T10:54:02.935Z,60.39
2023-02-28T10:56:30.225Z,61.07
2023-02-28T10:59:21.493Z,60.41
2023-02-28T11:01:54.479Z,60.47
2023-02-28T11:04:37.263Z,60.98
2023-02-28T11:07:22.965Z,60.53
2023-02-28T11:09:57.292Z,60.50
2023-02-28T11:12:34.021Z,60.82
2023-02-28T11:15:25.109Z,61.48
2023-02-28T11:18:00.160Z,61.77
2023-02-28T11:20:34.934Z,62.37
2023-02-28T11:23:09.468Z,62.38
2023-02-28T11:25:42.496Z,62.50
2023-02-28T11:28:32.504Z,62.21
2023-02-28T11:31:08.069Z,62.68
2023-02-28T11:33:46.221Z,62.12
2023-02-28T11:36:21.594Z,62.62
2023-02-28T11:38:58.806Z,61.79
2023-02-28T11:41:41.460Z,62.11
2023-02-28T11:44:25.560Z,61.84
2023-02-28T11:47:02.066Z,61.71
2023-02-28T11:49:54.842Z,61.80
2023-02-28T11:52:38.952Z,61.89
2023-02-28T11:55:32.159Z,62.69
2023-02-28T11:58:23.945Z,63.71
2023-02-28T12:01:23.166Z,64.17
2023-02-28T12:04:10.144Z,65.24
2023-02-28T12:06:53.779Z,65.82
2023-02-28T12:09:40.467Z,66.76
2023-02-28T12:12:21.234Z,66.98
2023-02-28T12:15:28.940Z,67.04
2023-02-28T12:18:16.042Z,67.49
2023-02-28T12:20:53.636Z,67.67
2023-02-28T12:23:45.230Z,68.25
2023-02-28T12:26:23.472Z,68.40
2023-02-28T12:28:58.472Z,68.70
2023-02-28T12:31:33.591Z,68.91
2023-02-28T12:34:08.725Z,69.41
2023-02-28T12:36:43.623Z,69.80
2023-02-28T12:39:19.580Z,70.00
2023-02-28T12:41:55.772Z,70.77
2023-02-28T12:44:55.272Z,70.63
2023-02-28T12:47:27.596Z,70.85
2023-02-28T12:50:03.066Z,71.06
2023-02-28T12:52:55.983Z,71.30
2023-02-28T12:55:47.443Z,71.59
2023-02-28T12:58:40.266Z,71.66
2023-02-28T13:01:36.437Z,71.97
2023-02-28T13:04:20.402Z,71.87
2023-02-28T13:07:04.079Z,71.98
2023-02-28T13:09:36.960Z,72.14
2023-02-28T13:12:19.118Z,72.26
2023-02-28T13:14:52.854Z,72.23
2023-02-28T13:17:27.340Z,72.56
2023-02-28T13:20:01.501Z,72.27
2023-02-28T13:22:45.328Z,72.56
2023-02-28T13:25:25.998Z,72.66
2023-02-28T13:28:00.808Z,72.55
2023-02-28T13:30:57.143Z,72.26
2023-02-28T13:33:39.220Z,72.44
2023-02-28T13:36:14.569Z,72.26
2023-02-28T13:38:54.108Z,72.77
2023-02-28T13:41:39.963Z,72.59
2023-02-28T13:44:25.373Z,72.68
2023-02-28T13:47:04.041Z,72.52
2023-02-28T13:49:38.516Z,72.68
2023-02-28T13:52:20.964Z,72.59
2023-02-28T13:55:06.201Z,72.99
2023-02-28T13:57:59.049Z,72.58
2023-02-28T14:00:45.998Z,73.30
2023-02-28T14:03:30.167Z,72.25
2023-02-28T14:06:20.348Z,72.36
2023-02-28T14:09:15.228Z,71.96
2023-02-28T14:11:48.567Z,72.32
2023-02-28T14:14:41.453Z,72.55
2023-02-28T14:17:19.252Z,72.77
2023-02-28T14:19:51.417Z,72.93
2023-02-28T14:22:49.332Z,72.39
2023-02-28T14:25:30.579Z,72.46
2023-02-28T14:28:21.923Z,72.33
2023-02-28T14:31:06.409Z,71.93
2023-02-28T14:33:44.709Z,72.14
2023-02-28T14:36:22.497Z,72.70
2023-02-28T14:38:57.580Z,72.98
2023-02-28T14:41:39.608Z,72.96
2023-02-28T14:44:26.797Z,73.37
2023-02-28T14:47:03.128Z,73.53
2023-02-28T14:49:48.681Z,73.71
2023-02-28T14:52:23.823Z,74.17
2023-02-28T14:55:04.805Z,74.47
2023-02-28T14:57:39.639Z,74.51
2023-02-28T15:00:17.876Z,74.61
2023-02-28T15:02:50.694Z,74.89
2023-02-28T15:05:34.706Z,75.19
2023-02-28T15:08:16.321Z,75.35
2023-02-28T15:10:57.659Z,75.71
2023-02-28T15:13:35.621Z,75.81
2023-02-28T15:16:13.605Z,75.74
2023-02-28T15:18:51.564Z,75.99
2023-02-28T15:21:33.200Z,75.87
2023-02-28T15:24:09.805Z,75.87
2023-02-28T15:26:44.995Z,75.92
2023-02-28T15:29:20.439Z,76.03
2023-02-28T15:32:04.796Z,76.03
2023-02-28T15:34:43.434Z,76.08
2023-02-28T15:37:32.449Z,75.79
2023-02-28T15:40:22.278Z,75.93
2023-02-28T15:43:18.088Z,76.16
2023-02-28T15:45:54.835Z,76.14
2023-02-28T15:48:32.883Z,76.09
2023-02-28T15:51:10.797Z,76.14
2023-02-28T15:53:51.375Z,76.30
2023-02-28T15:56:26.524Z,76.15
2023-02-28T15:59:00.711Z,75.81
2023-02-28T16:01:33.825Z,75.49
2023-02-28T16:04:20.507Z,75.47
2023-02-28T16:07:06.761Z,75.17
2023-02-28T16:09:39.126Z,75.25
2023-02-28T16:12:13.817Z,75.23
2023-02-28T16:14:46.500Z,75.34
2023-02-28T16:17:27.814Z,75.61
2023-02-28T16:20:00.091Z,75.63
2023-02-28T16:22:33.208Z,75.67
2023-02-28T16:25:05.619Z,75.97
2023-02-28T16:27:39.918Z,75.51
2023-02-28T16:30:12.945Z,75.52
2023-02-28T16:32:46.055Z,75.54
2023-02-28T16:35:19.185Z,75.36
2023-02-28T16:37:52.830Z,75.38
2023-02-28T16:40:28.932Z,75.51
2023-02-28T16:43:02.995Z,75.59
2023-02-28T16:45:35.178Z,75.48
2023-02-28T16:48:07.267Z,75.70
2023-02-28T16:50:39.971Z,75.32
2023-02-28T16:53:12.693Z,75.94
2023-02-28T16:55:45.017Z,76.18
2023-02-28T16:58:20.317Z,76.64
2023-02-28T17:00:53.588Z,77.10
2023-02-28T17:03:33.547Z,77.39
2023-02-28T17:06:02.268Z,77.72
2023-02-28T17:08:34.745Z,77.87
2023-02-28T17:11:09.085Z,78.27
2023-02-28T17:13:41.403Z,78.27
2023-02-28T17:16:21.976Z,78.27
2023-02-28T17:18:55.512Z,78.45
2023-02-28T17:21:27.760Z,79.06
2023-02-28T17:24:00.241Z,79.57
2023-02-28T17:26:33.126Z,79.53
2023-02-28T17:29:07.331Z,79.77
2023-02-28T17:31:41.296Z,79.88
2023-02-28T17:34:14.841Z,79.70
2023-02-28T17:36:52.062Z,80.32
2023-02-28T17:39:26.795Z,79.90
2023-02-28T17:41:59.056Z,80.00
2023-02-28T17:44:31.213Z,80.12
2023-02-28T17:47:03.841Z,80.18
2023-02-28T17:49:36.369Z,80.64
2023-02-28T17:52:08.754Z,79.08
2023-02-28T17:54:40.791Z,78.53
2023-02-28T17:57:15.932Z,77.46
2023-02-28T17:59:48.454Z,77.63
2023-02-28T18:02:20.649Z,78.01
2023-02-28T18:04:52.508Z,77.62
2023-02-28T18:07:26.201Z,77.32
2023-02-28T18:09:58.174Z,77.81
2023-02-28T18:12:30.862Z,77.92
2023-02-28T18:15:03.325Z,78.31
2023-02-28T18:17:35.379Z,78.19
2023-02-28T18:20:08.540Z,78.35
2023-02-28T18:22:41.888Z,78.51
2023-02-28T18:25:18.486Z,78.77
2023-02-28T18:27:59.334Z,78.63
2023-02-28T18:30:34.722Z,78.41
2023-02-28T18:33:07.103Z,78.00
2023-02-28T18:35:39.558Z,78.11
2023-02-28T18:38:15.192Z,77.95
2023-02-28T18:40:56.127Z,78.20
2023-02-28T18:43:28.925Z,77.97
2023-02-28T18:46:10.133Z,77.97
2023-02-28T18:48:42.831Z,78.18
2023-02-28T18:51:17.864Z,78.20
2023-02-28T18:53:50.233Z,78.04
2023-02-28T18:56:24.903Z,77.86
2023-02-28T18:58:57.067Z,77.69
2023-02-28T19:01:32.180Z,77.90
2023-02-28T19:04:05.445Z,77.43
2023-02-28T19:06:38.378Z,77.23
2023-02-28T19:09:11.607Z,76.79
2023-02-28T19:11:43.796Z,76.75
2023-02-28T19:14:15.863Z,76.55
2023-02-28T19:16:48.038Z,76.21
2023-02-28T19:19:20.234Z,75.70
2023-02-28T19:21:52.142Z,75.53
2023-02-28T19:24:24.160Z,75.53
2023-02-28T19:26:56.068Z,74.10
2023-02-28T19:29:28.091Z,74.46
2023-02-28T19:32:00.244Z,73.44
2023-02-28T19:34:33.154Z,73.00
2023-02-28T19:37:05.267Z,71.90
2023-02-28T19:39:43.713Z,71.92
2023-02-28T19:42:18.667Z,71.28
2023-02-28T19:44:51.165Z,71.87
2023-02-28T19:47:23.091Z,71.83
2023-02-28T19:49:55.691Z,71.33
2023-02-28T19:52:27.590Z,71.37
2023-02-28T19:54:59.778Z,71.39
2023-02-28T19:57:33.455Z,71.67
2023-02-28T20:00:05.818Z,70.88
2023-02-28T20:02:39.807Z,69.93
2023-02-28T20:05:11.838Z,69.28
2023-02-28T20:07:45.187Z,69.36
2023-02-28T20:10:17.215Z,69.74
2023-02-28T20:12:49.737Z,68.99
2023-02-28T20:15:21.785Z,68.21
2023-02-28T20:17:53.869Z,67.87
2023-02-28T20:20:26.214Z,68.02
2023-02-28T20:22:58.167Z,67.44
2023-02-28T20:25:30.428Z,67.06
2023-02-28T20:28:02.488Z,66.61
2023-02-28T20:30:34.672Z,65.71
2023-02-28T20:33:07.198Z,65.75
2023-02-28T20:35:39.519Z,65.04
2023-02-28T20:38:11.960Z,64.64
2023-02-28T20:40:43.951Z,64.00
2023-02-28T20:43:16.282Z,64.66
2023-02-28T20:46:01.469Z,64.04
2023-02-28T20:48:36.052Z,63.83
2023-02-28T20:51:08.931Z,64.37
2023-02-28T20:53:41.042Z,63.89
2023-02-28T20:56:18.869Z,63.43
2023-02-28T20:58:52.711Z,63.60
2023-02-28T21:01:27.179Z,63.30
2023-02-28T21:04:07.114Z,63.47
2023-02-28T21:06:43.327Z,63.85
2023-02-28T21:09:16.823Z,63.69
2023-02-28T21:11:49.563Z,62.79
2023-02-28T21:14:23.917Z,63.31
2023-02-28T21:16:55.874Z,62.78
2023-02-28T21:19:27.778Z,62.83
2023-02-28T21:21:59.754Z,63.57
2023-02-28T21:24:32.120Z,62.77
2023-02-28T21:27:04.083Z,62.66
2023-02-28T21:29:36.057Z,61.88
2023-02-28T21:32:08.365Z,62.47
2023-02-28T21:34:41.694Z,61.89
2023-02-28T21:37:13.634Z,62.09
2023-02-28T21:39:46.458Z,61.74
2023-02-28T21:42:18.814Z,62.36
2023-02-28T21:44:50.801Z,61.68
2023-02-28T21:47:22.684Z,61.17
2023-02-28T21:49:54.684Z,61.55
2023-02-28T21:52:26.685Z,60.92
2023-02-28T21:54:58.789Z,62.11
2023-02-28T21:57:32.738Z,62.15
2023-02-28T22:00:05.444Z,61.78
2023-02-28T22:02:39.031Z,61.58
2023-02-28T22:05:11.189Z,61.44
2023-02-28T22:07:44.651Z,62.57
2023-02-28T22:10:16.636Z,61.90
2023-02-28T22:12:48.715Z,61.98
2023-02-28T22:15:20.902Z,61.82
2023-02-28T22:17:54.464Z,62.20
2023-02-28T22:20:26.415Z,61.90
2023-02-28T22:22:58.449Z,62.51
2023-02-28T22:25:30.542Z,62.06
2023-02-28T22:28:02.379Z,62.30
2023-02-28T22:30:34.212Z,62.09
2023-02-28T22:33:06.274Z,61.93
2023-02-28T22:35:38.348Z,61.47
2023-02-28T22:38:10.714Z,61.71
2023-02-28T22:40:43.296Z,61.82
2023-02-28T22:43:15.385Z,62.19
2023-02-28T22:45:47.306Z,61.70
2023-02-28T22:48:19.194Z,62.14
2023-02-28T22:50:52.527Z,62.16
2023-02-28T22:53:24.906Z,62.22
2023-02-28T22:55:57.640Z,61.48
2023-02-28T22:58:30.130Z,62.00
2023-02-28T23:01:09.908Z,61.70
2023-02-28T23:03:42.764Z,61.60
2023-02-28T23:06:26.659Z,61.82
2023-02-28T23:09:01.045Z,61.89
2023-02-28T23:11:36.417Z,62.09
2023-02-28T23:14:09.625Z,62.56
2023-02-28T23:16:47.077Z,61.28
2023-02-28T23:19:31.191Z,61.14
2023-02-28T23:22:04.928Z,61.04
2023-02-28T23:24:37.825Z,61.25
2023-02-28T23:27:09.779Z,61.55
2023-02-28T23:29:42.373Z,62.18
2023-02-28T23:32:14.435Z,61.87
2023-02-28T23:34:46.605Z,61.64
2023-02-28T23:37:18.797Z,61.78
2023-02-28T23:39:50.770Z,61.87
2023-02-28T23:42:22.800Z,61.89
2023-02-28T23:44:54.788Z,62.71
2023-02-28T23:47:27.251Z,62.61
2023-02-28T23:49:59.254Z,62.24
2023-02-28T23:52:32.984Z,62.92
2023-02-28T23:55:05.202Z,62.20
2023-02-28T23:57:37.197Z,62.45
